createdAt,value
2022-07-28T00:00:30.933Z,81.5
2022-07-28T00:02:57.539Z,81.4
2022-07-28T00:05:24.162Z,81.7
2022-07-28T00:07:50.798Z,81.6
2022-07-28T00:10:17.420Z,81.4
2022-07-28T00:12:42.542Z,81.5
2022-07-28T00:15:09.176Z,81.5
2022-07-28T00:17:35.790Z,81.6
2022-07-28T00:20:02.404Z,81.8
2022-07-28T00:22:29.029Z,81.3
2022-07-28T00:24:55.659Z,81.9
2022-07-28T00:27:22.274Z,81.9
2022-07-28T00:29:48.900Z,82.5
2022-07-28T00:32:15.523Z,82.5
2022-07-28T00:34:42.160Z,82.7
2022-07-28T00:37:08.767Z,82.7
2022-07-28T00:39:35.384Z,82.8
2022-07-28T00:42:02.020Z,83.3
2022-07-28T00:44:27.156Z,83.3
2022-07-28T00:46:53.762Z,83.6
2022-07-28T00:49:20.398Z,84.2
2022-07-28T00:51:47.010Z,84.2
2022-07-28T00:54:13.644Z,84.6
2022-07-28T00:56:40.260Z,85
2022-07-28T00:59:06.890Z,84.9
2022-07-28T01:01:33.509Z,85
2022-07-28T01:04:00.128Z,85
2022-07-28T01:06:26.744Z,84.9
2022-07-28T01:08:53.373Z,84.4
2022-07-28T01:11:19.990Z,84.4
2022-07-28T01:13:46.615Z,84
2022-07-28T01:16:11.737Z,84.2
2022-07-28T01:18:38.370Z,84.3
2022-07-28T01:21:04.992Z,84.2
2022-07-28T01:23:31.611Z,84.4
2022-07-28T01:25:58.243Z,85
2022-07-28T01:28:24.873Z,84.9
2022-07-28T01:30:51.469Z,85.5
2022-07-28T01:33:18.112Z,85.2
2022-07-28T01:35:44.729Z,85.4
2022-07-28T01:38:11.342Z,86
2022-07-28T01:40:37.966Z,86.1
2022-07-28T01:43:04.597Z,86.3
2022-07-28T01:45:31.229Z,86.3
2022-07-28T01:47:56.332Z,86.8
2022-07-28T01:50:22.955Z,86.9
2022-07-28T01:52:49.587Z,87.5
2022-07-28T01:55:16.210Z,87
2022-07-28T01:57:42.842Z,87
2022-07-28T02:00:09.459Z,86.9
2022-07-28T02:02:36.080Z,86.5
2022-07-28T02:05:02.700Z,86.7
2022-07-28T02:07:29.320Z,86.8
2022-07-28T02:09:55.945Z,87
2022-07-28T02:12:22.574Z,87.3
2022-07-28T02:14:49.189Z,87.8
2022-07-28T02:17:15.809Z,88.5
2022-07-28T02:19:40.942Z,88.2
2022-07-28T02:22:07.559Z,87.6
2022-07-28T02:24:34.183Z,87.3
2022-07-28T02:27:00.799Z,87.4
2022-07-28T02:29:27.425Z,87.5
2022-07-28T02:31:54.049Z,87.9
2022-07-28T02:34:20.677Z,88.2
2022-07-28T02:36:47.299Z,88.2
2022-07-28T02:39:13.918Z,88.2
2022-07-28T02:41:40.535Z,88.1
2022-07-28T02:44:07.153Z,88.3
2022-07-28T02:46:33.788Z,88.7
2022-07-28T02:49:00.402Z,88.6
2022-07-28T02:51:25.531Z,88.5
2022-07-28T02:53:52.146Z,88.2
2022-07-28T02:56:18.768Z,88.4
2022-07-28T02:58:45.413Z,88.2
2022-07-28T03:01:12.019Z,88.8
2022-07-28T03:03:38.652Z,89.5
2022-07-28T03:06:05.267Z,89.6
2022-07-28T03:08:31.898Z,89.8
2022-07-28T03:10:58.512Z,90.1
2022-07-28T03:13:25.133Z,90.2
2022-07-28T03:15:51.766Z,90.3
2022-07-28T03:18:18.375Z,90.7
2022-07-28T03:20:45.008Z,90.9
2022-07-28T03:23:10.139Z,90.7
2022-07-28T03:25:36.747Z,90.1
2022-07-28T03:28:03.382Z,89.9
2022-07-28T03:30:30.004Z,90
2022-07-28T03:32:56.617Z,90.1
2022-07-28T03:35:23.251Z,90.4
2022-07-28T03:37:49.881Z,90.7
2022-07-28T03:40:16.489Z,90.7
2022-07-28T03:42:43.113Z,90.9
2022-07-28T03:45:09.770Z,90.8
2022-07-28T03:47:36.360Z,91
2022-07-28T03:50:02.987Z,91.1
2022-07-28T03:52:29.600Z,91.1
2022-07-28T03:54:54.741Z,91.4
2022-07-28T03:57:21.373Z,91.2
2022-07-28T03:59:47.976Z,91.1
2022-07-28T04:02:14.594Z,91
2022-07-28T04:04:41.219Z,91
2022-07-28T04:07:07.853Z,91.2
2022-07-28T04:09:34.469Z,91.5
2022-07-28T04:12:01.089Z,91.6
2022-07-28T04:14:27.720Z,91.5
2022-07-28T04:16:54.342Z,91.5
2022-07-28T04:19:20.951Z,91.6
2022-07-28T04:21:47.585Z,91.4
2022-07-28T04:24:14.205Z,91.4
2022-07-28T04:26:39.355Z,91.6
2022-07-28T04:29:05.966Z,91.8
2022-07-28T04:31:32.573Z,91.4
2022-07-28T04:33:59.212Z,90.8
2022-07-28T04:36:25.819Z,90.7
2022-07-28T04:38:52.456Z,91.3
2022-07-28T04:41:19.077Z,91.2
2022-07-28T04:43:45.695Z,91.7
2022-07-28T04:46:12.328Z,91.4
2022-07-28T04:48:38.937Z,90.7
2022-07-28T04:51:05.558Z,90
2022-07-28T04:53:32.188Z,90.2
2022-07-28T04:55:58.819Z,90.1
2022-07-28T04:58:25.432Z,90.6
2022-07-28T05:00:51.087Z,90.6
2022-07-28T05:03:17.173Z,90.8
2022-07-28T05:05:43.794Z,90.5
2022-07-28T05:08:10.428Z,90.2
2022-07-28T05:10:37.058Z,90.1
2022-07-28T05:13:03.668Z,89.1
2022-07-28T05:15:30.307Z,87.3
2022-07-28T05:17:56.908Z,86.9
2022-07-28T05:20:23.538Z,85.3
2022-07-28T05:22:50.159Z,84.5
2022-07-28T05:25:16.792Z,84.9
2022-07-28T05:27:43.410Z,83.2
2022-07-28T05:30:10.040Z,82.6
2022-07-28T05:32:35.159Z,81.8
2022-07-28T05:35:01.792Z,81.6
2022-07-28T05:37:28.401Z,81.8
2022-07-28T05:39:55.025Z,81.9
2022-07-28T05:42:21.650Z,81.6
2022-07-28T05:44:48.286Z,81.4
2022-07-28T05:47:14.895Z,80.9
2022-07-28T05:49:41.513Z,81
2022-07-28T05:52:08.138Z,80.3
2022-07-28T05:54:34.761Z,79.9
2022-07-28T05:57:01.396Z,78.5
2022-07-28T05:59:28.006Z,77.5
2022-07-28T06:01:54.647Z,78.4
2022-07-28T06:04:19.766Z,77.7
2022-07-28T06:06:46.391Z,76.9
2022-07-28T06:09:12.997Z,76.9
2022-07-28T06:11:39.629Z,76.5
2022-07-28T06:14:06.251Z,76.7
2022-07-28T06:16:32.878Z,76.5
2022-07-28T06:18:59.514Z,76.6
2022-07-28T06:21:26.125Z,74.6
2022-07-28T06:23:52.733Z,75.3
2022-07-28T06:26:19.360Z,74.7
2022-07-28T06:28:45.994Z,73.3
2022-07-28T06:31:12.616Z,71.6
2022-07-28T06:33:39.224Z,70.3
2022-07-28T06:36:04.368Z,71.8
2022-07-28T06:38:30.992Z,72.2
2022-07-28T06:40:57.605Z,70.4
2022-07-28T06:43:24.222Z,71.2
2022-07-28T06:45:50.847Z,69.3
2022-07-28T06:48:17.479Z,70.9
2022-07-28T06:50:44.091Z,70.6
2022-07-28T06:53:10.735Z,70.3
2022-07-28T06:55:37.387Z,70.1
2022-07-28T06:58:03.977Z,69.9
2022-07-28T07:00:30.596Z,68
2022-07-28T07:02:57.201Z,69.8
2022-07-28T07:05:23.836Z,69.4
2022-07-28T07:07:48.966Z,68.5
2022-07-28T07:10:15.587Z,67
2022-07-28T07:12:42.190Z,65.9
2022-07-28T07:15:08.830Z,61.2
2022-07-28T07:17:35.461Z,55.9
2022-07-28T07:20:02.070Z,51.4
2022-07-28T07:22:28.689Z,51
2022-07-28T07:24:55.323Z,47.5
2022-07-28T07:27:21.940Z,47
2022-07-28T07:29:48.563Z,47.3
2022-07-28T07:32:15.174Z,45
2022-07-28T07:34:41.807Z,44.7
2022-07-28T07:37:08.423Z,44.1
2022-07-28T07:39:33.554Z,43.5
2022-07-28T07:42:00.190Z,42.2
2022-07-28T07:44:26.812Z,41
2022-07-28T07:46:53.416Z,40.5
2022-07-28T07:49:20.052Z,40.3
2022-07-28T07:51:45.171Z,39.1
2022-07-28T07:54:11.809Z,38.3
2022-07-28T07:56:38.432Z,39.1
2022-07-28T07:59:05.055Z,39.2
2022-07-28T08:01:31.671Z,39.3
2022-07-28T08:03:58.360Z,39.3
2022-07-28T08:06:24.921Z,38.9
2022-07-28T08:08:51.530Z,37
2022-07-28T08:11:18.166Z,40.1
2022-07-28T08:13:44.792Z,41.9
2022-07-28T08:16:11.402Z,39.4
2022-07-28T08:18:38.027Z,37.8
2022-07-28T08:21:04.672Z,35
2022-07-28T08:23:29.782Z,37.7
2022-07-28T08:25:56.393Z,37.5
2022-07-28T08:28:23.025Z,36.5
2022-07-28T08:30:49.653Z,36.2
2022-07-28T08:33:16.268Z,36.4
2022-07-28T08:35:42.894Z,34.7
2022-07-28T08:38:09.509Z,35.1
2022-07-28T08:40:36.145Z,35.8
2022-07-28T08:43:02.787Z,34.2
2022-07-28T08:45:29.375Z,38.5
2022-07-28T08:47:56.017Z,38.2
2022-07-28T08:50:22.633Z,37.8
2022-07-28T08:52:49.244Z,35.9
2022-07-28T08:55:14.389Z,35.3
2022-07-28T08:57:41.020Z,33.9
2022-07-28T09:00:07.642Z,34.2
2022-07-28T09:02:34.242Z,34
2022-07-28T09:05:00.889Z,34.2
2022-07-28T09:07:27.519Z,34.8
2022-07-28T09:09:54.126Z,33.8
2022-07-28T09:12:20.746Z,33.7
2022-07-28T09:14:47.553Z,34
2022-07-28T09:17:13.991Z,36.9
2022-07-28T09:19:40.618Z,34.5
2022-07-28T09:22:07.232Z,33.6
2022-07-28T09:24:33.863Z,32.6
2022-07-28T09:26:58.991Z,31.7
2022-07-28T09:29:25.610Z,35.7
2022-07-28T09:31:52.252Z,34.9
2022-07-28T09:34:18.849Z,35.5
2022-07-28T09:36:45.468Z,38.9
2022-07-28T09:39:12.099Z,38.9
2022-07-28T09:41:38.734Z,40
2022-07-28T09:44:05.384Z,40.1
2022-07-28T09:46:31.978Z,41.4
2022-07-28T09:48:58.614Z,40.5
2022-07-28T09:51:25.236Z,40.4
2022-07-28T09:53:51.850Z,38.3
2022-07-28T09:56:18.470Z,40
2022-07-28T09:58:43.616Z,37
2022-07-28T10:01:10.211Z,34.3
2022-07-28T10:03:36.862Z,35.8
2022-07-28T10:06:03.475Z,34.4
2022-07-28T10:08:30.099Z,35.5
2022-07-28T10:10:56.718Z,35.5
2022-07-28T10:13:23.335Z,36.5
2022-07-28T10:15:49.980Z,39
2022-07-28T10:18:16.585Z,40.5
2022-07-28T10:20:43.202Z,40.4
2022-07-28T10:23:10.043Z,40.6
2022-07-28T10:25:36.448Z,41.1
2022-07-28T10:28:03.313Z,40.7
2022-07-28T10:30:28.204Z,38.7
2022-07-28T10:32:54.836Z,40
2022-07-28T10:35:21.454Z,37.5
2022-07-28T10:37:48.087Z,39.4
2022-07-28T10:40:14.706Z,40
2022-07-28T10:42:41.322Z,38.9
2022-07-28T10:45:07.944Z,41.3
2022-07-28T10:47:34.569Z,41
2022-07-28T10:50:01.177Z,41
2022-07-28T10:52:27.811Z,41
2022-07-28T10:54:54.441Z,39.8
2022-07-28T10:57:21.069Z,41.8
2022-07-28T10:59:47.699Z,45.1
2022-07-28T11:02:12.813Z,44.9
2022-07-28T11:04:39.434Z,44.1
2022-07-28T11:07:06.049Z,43.8
2022-07-28T11:09:32.681Z,43.7
2022-07-28T11:11:59.307Z,42.9
2022-07-28T11:14:25.931Z,44.2
2022-07-28T11:16:52.557Z,45.2
2022-07-28T11:19:19.169Z,45.4
2022-07-28T11:21:45.796Z,46.4
2022-07-28T11:24:12.418Z,44.8
2022-07-28T11:26:39.053Z,45.7
2022-07-28T11:29:05.681Z,43.8
2022-07-28T11:31:32.290Z,44.6
2022-07-28T11:33:57.423Z,44.9
2022-07-28T11:36:24.062Z,45.3
2022-07-28T11:38:50.663Z,46.5
2022-07-28T11:41:17.305Z,45
2022-07-28T11:43:43.941Z,43.3
2022-07-28T11:46:10.527Z,42.2
2022-07-28T11:48:37.168Z,42.5
2022-07-28T11:51:03.811Z,42.4
2022-07-28T11:53:30.400Z,42
2022-07-28T11:55:57.036Z,42.1
2022-07-28T11:58:23.658Z,38.8
2022-07-28T12:00:50.276Z,41.4
2022-07-28T12:03:16.909Z,42
2022-07-28T12:05:42.026Z,41.3
2022-07-28T12:08:08.658Z,40.8
2022-07-28T12:10:35.290Z,42
2022-07-28T12:13:01.921Z,41.2
2022-07-28T12:15:28.533Z,40.8
2022-07-28T12:17:55.200Z,42.8
2022-07-28T12:20:21.774Z,41.6
2022-07-28T12:22:48.495Z,40.6
2022-07-28T12:25:15.014Z,40.9
2022-07-28T12:27:41.710Z,42.4
2022-07-28T12:30:08.290Z,41.5
2022-07-28T12:32:34.897Z,43
2022-07-28T12:35:01.523Z,40.8
2022-07-28T12:37:26.647Z,39.8
2022-07-28T12:39:53.262Z,40.3
2022-07-28T12:42:19.904Z,42.4
2022-07-28T12:44:46.542Z,40.6
2022-07-28T12:47:13.137Z,40
2022-07-28T12:49:39.768Z,41.1
2022-07-28T12:52:06.390Z,41
2022-07-28T12:54:33.007Z,41.4
2022-07-28T12:56:59.638Z,41
2022-07-28T12:59:26.269Z,41.3
2022-07-28T13:01:52.887Z,40
2022-07-28T13:04:19.515Z,40.3
2022-07-28T13:06:46.133Z,40.8
2022-07-28T13:09:12.747Z,41.6
2022-07-28T13:11:37.873Z,41.5
2022-07-28T13:14:04.519Z,40.5
2022-07-28T13:16:31.122Z,40.3
2022-07-28T13:18:57.751Z,41
2022-07-28T13:21:24.376Z,41.1
2022-07-28T13:23:51.001Z,40
2022-07-28T13:26:17.627Z,40.1
2022-07-28T13:28:44.248Z,39.5
2022-07-28T13:31:10.862Z,41.5
2022-07-28T13:33:37.500Z,41.8
2022-07-28T13:36:04.115Z,41
2022-07-28T13:38:30.744Z,39
2022-07-28T13:40:57.370Z,40.6
2022-07-28T13:43:22.510Z,39.5
2022-07-28T13:45:49.126Z,40.4
2022-07-28T13:48:15.748Z,39.5
2022-07-28T13:50:42.397Z,41.3
2022-07-28T13:53:08.988Z,40.5
2022-07-28T13:55:35.606Z,40.2
2022-07-28T13:58:02.231Z,42.1
2022-07-28T14:00:28.857Z,41.2
2022-07-28T14:02:55.473Z,41.8
2022-07-28T14:05:22.103Z,42.1
2022-07-28T14:07:48.720Z,43.2
2022-07-28T14:10:15.352Z,43.9
2022-07-28T14:12:41.985Z,44
2022-07-28T14:15:07.107Z,44
2022-07-28T14:17:33.728Z,43.5
2022-07-28T14:20:00.343Z,43.5
2022-07-28T14:22:26.987Z,42.8
2022-07-28T14:24:53.592Z,43.2
2022-07-28T14:27:20.217Z,43.6
2022-07-28T14:29:46.847Z,42.3
2022-07-28T14:32:13.475Z,43.3
2022-07-28T14:34:40.093Z,41.4
2022-07-28T14:37:06.719Z,40
2022-07-28T14:39:33.344Z,41.3
2022-07-28T14:41:59.979Z,39.6
2022-07-28T14:44:26.595Z,39.7
2022-07-28T14:46:53.212Z,41.2
2022-07-28T14:49:18.335Z,41.8
2022-07-28T14:51:44.970Z,41.8
2022-07-28T14:54:11.584Z,41.6
2022-07-28T14:56:38.217Z,41.6
2022-07-28T14:59:04.844Z,43.1
2022-07-28T15:01:31.463Z,42.2
2022-07-28T15:03:58.083Z,42.6
2022-07-28T15:06:24.731Z,41.6
2022-07-28T15:08:51.321Z,42
2022-07-28T15:11:17.962Z,40.4
2022-07-28T15:13:44.580Z,39.8
2022-07-28T15:16:11.213Z,40.5
2022-07-28T15:18:37.828Z,39.3
2022-07-28T15:21:02.952Z,39.9
2022-07-28T15:23:29.575Z,38.8
2022-07-28T15:25:56.266Z,39.1
2022-07-28T15:28:22.836Z,39
2022-07-28T15:30:49.468Z,39.4
2022-07-28T15:33:16.068Z,38.4
2022-07-28T15:35:42.693Z,41.1
2022-07-28T15:38:09.345Z,36.2
2022-07-28T15:40:35.950Z,36.4
2022-07-28T15:43:02.557Z,35.7
2022-07-28T15:45:29.185Z,37.5
2022-07-28T15:47:55.811Z,38.7
2022-07-28T15:50:22.459Z,41.4
2022-07-28T15:52:47.561Z,40
2022-07-28T15:55:14.181Z,40.1
2022-07-28T15:57:40.802Z,40
2022-07-28T16:00:07.441Z,40
2022-07-28T16:02:34.065Z,41.5
2022-07-28T16:04:59.184Z,41.5
2022-07-28T16:07:25.818Z,40.9
2022-07-28T16:09:52.440Z,38.7
2022-07-28T16:12:19.066Z,39.1
2022-07-28T16:14:45.696Z,40.2
2022-07-28T16:17:12.305Z,41.5
2022-07-28T16:19:38.925Z,41.5
2022-07-28T16:22:05.554Z,39.8
2022-07-28T16:24:32.189Z,40.7
2022-07-28T16:26:58.806Z,40.6
2022-07-28T16:29:25.423Z,40.8
2022-07-28T16:34:18.670Z,41.4
2022-07-28T16:36:43.811Z,41.3
2022-07-28T16:39:10.422Z,40.7
2022-07-28T16:41:37.061Z,40.5
2022-07-28T16:44:03.677Z,38.6
2022-07-28T16:46:30.300Z,40.1
2022-07-28T16:48:56.928Z,41
2022-07-28T16:53:50.170Z,41.4
2022-07-28T16:56:16.788Z,39.9
2022-07-28T16:58:43.401Z,40.8
2022-07-28T17:01:10.035Z,41.3
2022-07-28T17:03:36.666Z,42
2022-07-28T17:06:03.281Z,40.1
2022-07-28T17:08:28.415Z,38.8
2022-07-28T17:10:55.031Z,38.8
2022-07-28T17:13:21.655Z,39.7
2022-07-28T17:15:48.273Z,40.2
2022-07-28T17:18:14.895Z,39
2022-07-28T17:20:41.522Z,39.9
2022-07-28T17:23:08.155Z,40.7
2022-07-28T17:25:34.772Z,41.1
2022-07-28T17:28:01.404Z,41.5
2022-07-28T17:30:28.015Z,41.3
2022-07-28T17:35:21.264Z,42.2
2022-07-28T17:37:47.886Z,43.3
2022-07-28T17:40:13.015Z,42.5
2022-07-28T17:42:39.635Z,42.7
2022-07-28T17:45:06.254Z,42.1
2022-07-28T17:47:32.879Z,42.5
2022-07-28T17:49:59.519Z,41.9
2022-07-28T17:52:26.139Z,42.3
2022-07-28T17:54:52.760Z,42.6
2022-07-28T17:57:19.382Z,42.3
2022-07-28T17:59:46.009Z,42.5
2022-07-28T18:02:12.619Z,43.1
2022-07-28T18:04:39.252Z,42.8
2022-07-28T18:07:05.885Z,43.6
2022-07-28T18:09:32.507Z,43.3
2022-07-28T18:11:57.631Z,43.8
2022-07-28T18:14:24.253Z,44.1
2022-07-28T18:16:50.874Z,43.4
2022-07-28T18:19:17.499Z,44.2
2022-07-28T18:21:44.126Z,43.9
2022-07-28T18:24:10.750Z,44.5
2022-07-28T18:26:37.358Z,44.7
2022-07-28T18:29:03.993Z,44.9
2022-07-28T18:31:30.606Z,45
2022-07-28T18:33:57.249Z,45.3
2022-07-28T18:36:23.861Z,45.7
2022-07-28T18:38:50.487Z,45.8
2022-07-28T18:41:17.115Z,46.1
2022-07-28T18:43:42.230Z,46.3
2022-07-28T18:46:08.851Z,46.2
2022-07-28T18:48:35.487Z,46.5
2022-07-28T18:51:02.109Z,46
2022-07-28T18:53:28.748Z,46.4
2022-07-28T18:55:55.357Z,47
2022-07-28T18:58:21.979Z,47.9
2022-07-28T19:00:48.598Z,47.6
2022-07-28T19:03:15.212Z,47.8
2022-07-28T19:05:41.853Z,48.4
2022-07-28T19:08:08.474Z,48.2
2022-07-28T19:10:35.092Z,48.9
2022-07-28T19:13:01.731Z,49.2
2022-07-28T19:15:26.845Z,50.1
2022-07-28T19:17:53.457Z,49.7
2022-07-28T19:20:20.098Z,50.4
2022-07-28T19:22:46.712Z,51
2022-07-28T19:25:13.344Z,50.5
2022-07-28T19:27:39.950Z,50.5
2022-07-28T19:30:06.577Z,50.9
2022-07-28T19:32:33.213Z,51.5
2022-07-28T19:34:59.826Z,51.8
2022-07-28T19:37:26.462Z,51
2022-07-28T19:39:53.067Z,55.4
2022-07-28T19:42:19.702Z,52.9
2022-07-28T19:44:46.312Z,54.2
2022-07-28T19:47:11.475Z,53.4
2022-07-28T19:49:38.063Z,52.2
2022-07-28T19:52:04.687Z,53.1
2022-07-28T19:54:31.317Z,53.5
2022-07-28T19:56:57.946Z,53.4
2022-07-28T19:59:24.552Z,54
2022-07-28T20:01:51.180Z,53.5
2022-07-28T20:04:17.800Z,52.5
2022-07-28T20:06:44.433Z,52.1
2022-07-28T20:09:11.063Z,51.7
2022-07-28T20:11:37.677Z,51.8
2022-07-28T20:14:04.292Z,51.5
2022-07-28T20:16:30.930Z,52.4
2022-07-28T20:18:56.054Z,55.1
2022-07-28T20:21:22.665Z,58
2022-07-28T20:23:49.302Z,61.8
2022-07-28T20:26:15.918Z,62
2022-07-28T20:28:42.564Z,68.9
2022-07-28T20:31:09.177Z,71.6
2022-07-28T20:33:35.791Z,70.5
2022-07-28T20:36:02.402Z,77.7
2022-07-28T20:38:29.095Z,81.7
2022-07-28T20:40:55.651Z,83.5
2022-07-28T20:43:22.279Z,84.5
2022-07-28T20:45:48.896Z,85.4
2022-07-28T20:48:15.520Z,87
2022-07-28T20:50:40.668Z,87.9
2022-07-28T20:53:07.274Z,86.3
2022-07-28T20:55:33.912Z,86.5
2022-07-28T20:58:00.531Z,87.2
2022-07-28T21:00:27.137Z,87.1
2022-07-28T21:02:53.778Z,88.5
2022-07-28T21:05:20.393Z,89.4
2022-07-28T21:07:47.026Z,91
2022-07-28T21:10:13.641Z,92
2022-07-28T21:12:40.246Z,93.1
2022-07-28T21:15:06.895Z,93
2022-07-28T21:17:33.511Z,93.1
2022-07-28T21:20:00.136Z,93.6
2022-07-28T21:22:25.254Z,93.1
2022-07-28T21:24:51.881Z,92.6
2022-07-28T21:27:18.497Z,92.7
2022-07-28T21:29:45.109Z,94.1
2022-07-28T21:32:11.958Z,95.7
2022-07-28T21:34:38.370Z,96.6
2022-07-28T21:37:04.989Z,97.3
2022-07-28T21:39:31.617Z,97.4
2022-07-28T21:41:58.236Z,96.9
2022-07-28T21:44:24.859Z,96.6
2022-07-28T21:46:51.481Z,96.6
2022-07-28T21:49:18.102Z,97.2
2022-07-28T21:51:44.727Z,97.9
2022-07-28T21:54:09.869Z,98.4
2022-07-28T21:56:36.487Z,98.3
2022-07-28T21:59:03.095Z,99.1
2022-07-28T22:01:29.725Z,99.3
2022-07-28T22:03:56.349Z,99.7
2022-07-28T22:06:22.979Z,100
2022-07-28T22:08:49.599Z,100
2022-07-28T22:11:16.231Z,100
2022-07-28T22:13:42.850Z,100
2022-07-28T22:16:09.466Z,100
2022-07-28T22:18:36.079Z,100
2022-07-28T22:21:02.718Z,100
2022-07-28T22:23:29.348Z,99.3
2022-07-28T22:25:54.487Z,96.9
2022-07-28T22:28:21.084Z,98.1
2022-07-28T22:30:47.713Z,98.2
2022-07-28T22:33:14.351Z,97.5
2022-07-28T22:35:40.962Z,97.4
2022-07-28T22:38:07.592Z,97.9
2022-07-28T22:40:34.205Z,98.4
2022-07-28T22:43:00.835Z,98.9
2022-07-28T22:45:27.464Z,99.5
2022-07-28T22:47:54.081Z,99.8
2022-07-28T22:50:20.706Z,100
2022-07-28T22:52:47.324Z,100
2022-07-28T22:55:13.945Z,100
2022-07-28T22:57:39.078Z,100
2022-07-28T23:00:05.707Z,100
2022-07-28T23:02:32.329Z,100
2022-07-28T23:04:58.956Z,100
2022-07-28T23:07:25.567Z,100
2022-07-28T23:09:52.194Z,100
2022-07-28T23:12:18.817Z,100
2022-07-28T23:14:45.444Z,100
2022-07-28T23:17:12.073Z,100
2022-07-28T23:19:38.688Z,100
2022-07-28T23:22:05.314Z,100
2022-07-28T23:24:31.925Z,100
2022-07-28T23:26:58.560Z,100
2022-07-28T23:29:23.677Z,100
2022-07-28T23:31:50.310Z,100
2022-07-28T23:34:16.932Z,100
2022-07-28T23:36:43.553Z,100
2022-07-28T23:39:10.161Z,100
2022-07-28T23:41:36.795Z,100
2022-07-28T23:44:03.416Z,100
2022-07-28T23:46:30.045Z,100
2022-07-28T23:48:56.655Z,100
2022-07-28T23:51:23.280Z,100
2022-07-28T23:53:49.914Z,100
2022-07-28T23:56:16.527Z,100
2022-07-28T23:58:43.158Z,100
